createdAt,value
2022-09-26T00:00:17.350Z,22.51
2022-09-26T00:05:19.263Z,22.52
2022-09-26T00:10:21.290Z,22.51
2022-09-26T00:15:24.061Z,22.55
2022-09-26T00:20:25.930Z,22.50
2022-09-26T00:25:27.888Z,22.49
2022-09-26T00:30:29.746Z,22.51
2022-09-26T00:35:31.793Z,22.48
2022-09-26T00:40:34.039Z,22.52
2022-09-26T00:45:36.440Z,22.50
2022-09-26T00:50:41.631Z,22.46
2022-09-26T00:55:48.861Z,22.47
2022-09-26T01:00:51.671Z,22.42
2022-09-26T01:05:54.409Z,22.46
2022-09-26T01:10:57.735Z,22.44
2022-09-26T01:15:59.683Z,22.49
2022-09-26T01:21:07.920Z,22.47
2022-09-26T01:26:58.049Z,22.44
2022-09-26T01:32:36.767Z,22.48
2022-09-26T01:38:01.471Z,22.47
2022-09-26T01:43:58.805Z,22.43
2022-09-26T01:49:14.791Z,22.44
2022-09-26T01:54:28.004Z,22.45
2022-09-26T01:59:35.188Z,22.51
2022-09-26T02:04:41.664Z,22.48
2022-09-26T02:09:50.673Z,22.45
2022-09-26T02:14:56.952Z,22.44
2022-09-26T02:20:02.031Z,22.46
2022-09-26T02:25:08.841Z,22.45
2022-09-26T02:30:11.382Z,22.45
2022-09-26T02:35:32.471Z,22.42
2022-09-26T02:41:04.047Z,22.46
2022-09-26T02:46:19.639Z,22.43
2022-09-26T02:51:41.035Z,22.44
2022-09-26T02:56:55.745Z,22.46
2022-09-26T03:02:06.569Z,22.41
2022-09-26T03:07:15.048Z,22.40
2022-09-26T03:12:19.205Z,22.49
2022-09-26T03:17:21.956Z,22.47
2022-09-26T03:22:25.566Z,22.44
2022-09-26T03:27:28.007Z,22.47
2022-09-26T03:32:30.017Z,22.44
2022-09-26T03:37:34.298Z,22.42
2022-09-26T03:42:37.023Z,22.47
2022-09-26T03:47:38.902Z,22.40
2022-09-26T03:52:40.629Z,22.42
2022-09-26T03:57:43.105Z,22.46
2022-09-26T04:02:45.035Z,22.41
2022-09-26T04:07:47.486Z,22.46
2022-09-26T04:12:49.415Z,22.44
2022-09-26T04:17:51.240Z,22.39
2022-09-26T04:22:52.976Z,22.43
2022-09-26T04:27:55.118Z,22.39
2022-09-26T04:32:57.015Z,22.43
2022-09-26T04:37:59.228Z,22.39
2022-09-26T04:43:01.013Z,22.40
2022-09-26T04:48:03.071Z,22.40
2022-09-26T04:53:06.667Z,22.42
2022-09-26T04:58:08.503Z,22.42
2022-09-26T05:03:10.914Z,22.42
2022-09-26T05:08:14.336Z,22.44
2022-09-26T05:13:16.194Z,22.42
2022-09-26T05:18:17.881Z,22.45
2022-09-26T05:23:44.526Z,22.39
2022-09-26T05:29:08.089Z,22.42
2022-09-26T05:34:16.900Z,22.40
2022-09-26T05:39:42.418Z,22.37
2022-09-26T05:44:44.764Z,22.46
2022-09-26T05:49:46.907Z,22.43
2022-09-26T05:54:48.794Z,22.40
2022-09-26T05:59:50.723Z,22.40
2022-09-26T06:04:52.811Z,22.39
2022-09-26T06:09:54.893Z,22.38
2022-09-26T06:14:56.644Z,22.40
2022-09-26T06:19:58.674Z,22.39
2022-09-26T06:25:00.771Z,22.40
2022-09-26T06:30:02.733Z,22.35
2022-09-26T06:35:05.321Z,22.38
2022-09-26T06:40:09.209Z,22.40
2022-09-26T06:45:11.915Z,22.39
2022-09-26T06:50:13.631Z,22.37
2022-09-26T06:55:15.506Z,22.35
2022-09-26T07:00:17.461Z,22.40
2022-09-26T07:05:20.525Z,22.38
2022-09-26T07:10:22.226Z,22.41
2022-09-26T07:15:24.963Z,22.43
2022-09-26T07:20:26.751Z,22.39
2022-09-26T07:25:29.876Z,22.41
2022-09-26T07:30:31.635Z,22.32
2022-09-26T07:35:36.015Z,22.40
2022-09-26T07:40:38.652Z,22.40
2022-09-26T07:45:59.294Z,22.37
2022-09-26T07:51:05.691Z,22.26
2022-09-26T07:56:13.272Z,22.36
2022-09-26T08:01:16.811Z,22.40
2022-09-26T08:06:20.524Z,22.31
2022-09-26T08:11:23.036Z,22.29
2022-09-26T08:16:24.921Z,22.33
2022-09-26T08:21:27.230Z,22.26
2022-09-26T08:26:29.089Z,22.31
2022-09-26T08:31:31.766Z,22.31
2022-09-26T08:36:33.660Z,22.29
2022-09-26T08:41:55.986Z,22.12
2022-09-26T08:47:05.434Z,22.24
2022-09-26T08:52:28.552Z,22.17
2022-09-26T08:57:39.551Z,22.15
2022-09-26T09:02:50.702Z,22.15
2022-09-26T09:07:56.906Z,22.18
2022-09-26T09:13:10.908Z,22.22
2022-09-26T09:18:15.734Z,22.15
2022-09-26T09:23:59.365Z,22.17
2022-09-26T09:29:34.095Z,22.12
2022-09-26T09:34:41.485Z,22.18
2022-09-26T09:39:45.890Z,22.18
2022-09-26T09:45:02.137Z,22.26
2022-09-26T09:50:14.783Z,22.28
2022-09-26T09:55:21.032Z,22.28
2022-09-26T10:00:24.877Z,22.23
2022-09-26T10:05:42.966Z,22.12
2022-09-26T10:10:59.475Z,22.11
2022-09-26T10:16:09.946Z,22.08
2022-09-26T10:21:16.501Z,22.05
2022-09-26T10:26:30.505Z,22.05
2022-09-26T10:31:42.018Z,22.07
2022-09-26T10:36:44.700Z,22.25
2022-09-26T10:41:47.985Z,22.31
2022-09-26T10:46:52.576Z,22.30
2022-09-26T10:52:12.522Z,22.29
2022-09-26T10:57:21.641Z,22.42
2022-09-26T11:02:26.522Z,22.39
2022-09-26T11:07:33.496Z,22.40
2022-09-26T11:12:39.704Z,22.39
2022-09-26T11:17:50.158Z,22.35
2022-09-26T11:23:20.774Z,22.35
2022-09-26T11:28:34.521Z,22.38
2022-09-26T11:33:36.275Z,22.33
2022-09-26T11:38:49.924Z,22.37
2022-09-26T11:44:05.279Z,22.37
2022-09-26T11:49:25.667Z,22.35
2022-09-26T11:54:47.309Z,22.37
2022-09-26T12:00:08.389Z,22.39
2022-09-26T12:05:30.434Z,22.40
2022-09-26T12:10:43.996Z,22.33
2022-09-26T12:15:54.684Z,22.41
2022-09-26T12:21:21.065Z,22.32
2022-09-26T12:26:42.223Z,22.35
2022-09-26T12:31:54.990Z,22.36
2022-09-26T12:37:10.330Z,22.39
2022-09-26T12:42:33.476Z,22.36
2022-09-26T12:48:00.650Z,22.35
2022-09-26T12:53:31.156Z,22.29
2022-09-26T12:58:51.154Z,22.39
2022-09-26T13:04:35.622Z,22.16
2022-09-26T13:10:11.859Z,22.10
2022-09-26T13:15:41.851Z,22.11
2022-09-26T13:20:47.252Z,22.12
2022-09-26T13:25:54.585Z,22.20
2022-09-26T13:31:04.726Z,22.29
2022-09-26T13:36:09.929Z,22.31
2022-09-26T13:41:42.892Z,22.27
2022-09-26T13:47:12.702Z,22.20
2022-09-26T13:52:23.864Z,22.19
2022-09-26T13:57:31.915Z,22.22
2022-09-26T14:02:34.564Z,22.25
2022-09-26T14:08:01.078Z,22.24
2022-09-26T14:13:22.227Z,22.22
2022-09-26T14:19:17.944Z,22.19
2022-09-26T14:24:37.513Z,22.13
2022-09-26T14:29:39.423Z,22.11
2022-09-26T14:34:48.662Z,22.16
2022-09-26T14:40:28.717Z,22.08
2022-09-26T14:45:33.311Z,22.11
2022-09-26T14:51:18.815Z,22.16
2022-09-26T14:56:38.608Z,22.12
2022-09-26T15:01:41.648Z,22.22
2022-09-26T15:06:46.911Z,22.18
2022-09-26T15:11:55.671Z,22.21
2022-09-26T15:16:59.545Z,22.10
2022-09-26T15:22:14.901Z,22.06
2022-09-26T15:27:19.535Z,22.10
2022-09-26T15:32:29.407Z,22.02
2022-09-26T15:37:36.712Z,22.01
2022-09-26T15:42:57.437Z,21.98
2022-09-26T15:48:05.004Z,21.90
2022-09-26T15:53:09.050Z,21.90
2022-09-26T15:58:15.917Z,21.94
2022-09-26T16:03:31.205Z,21.95
2022-09-26T16:08:40.544Z,21.98
2022-09-26T16:13:48.146Z,21.97
2022-09-26T16:18:56.595Z,21.92
2022-09-26T16:24:20.537Z,21.95
2022-09-26T16:29:35.506Z,21.92
2022-09-26T16:34:37.335Z,21.98
2022-09-26T16:39:39.493Z,21.90
2022-09-26T16:44:50.037Z,21.90
2022-09-26T16:49:52.204Z,21.86
2022-09-26T16:54:56.442Z,21.88
2022-09-26T17:00:23.690Z,21.83
2022-09-26T17:05:25.492Z,21.91
2022-09-26T17:10:27.275Z,22.04
2022-09-26T17:15:30.432Z,22.05
2022-09-26T17:20:32.162Z,22.07
2022-09-26T17:25:35.985Z,22.08
2022-09-26T17:30:37.859Z,22.07
2022-09-26T17:35:40.819Z,22.06
2022-09-26T17:40:45.960Z,22.10
2022-09-26T17:45:50.966Z,22.06
2022-09-26T17:50:56.767Z,22.09
2022-09-26T17:55:58.680Z,22.12
2022-09-26T18:01:03.814Z,22.15
2022-09-26T18:06:05.832Z,22.11
2022-09-26T18:11:18.027Z,22.07
2022-09-26T18:16:20.918Z,22.11
2022-09-26T18:21:24.379Z,22.09
2022-09-26T18:26:32.376Z,22.09
2022-09-26T18:31:38.537Z,22.05
2022-09-26T18:36:40.568Z,22.10
2022-09-26T18:41:42.628Z,22.04
2022-09-26T18:46:46.951Z,22.07
2022-09-26T18:51:49.397Z,22.07
2022-09-26T18:57:09.939Z,22.03
2022-09-26T19:02:23.353Z,22.04
2022-09-26T19:07:25.728Z,22.06
2022-09-26T19:12:27.785Z,22.04
2022-09-26T19:17:29.715Z,22.07
2022-09-26T19:22:31.881Z,22.08
2022-09-26T19:27:49.119Z,22.07
2022-09-26T19:32:53.491Z,22.06
2022-09-26T19:37:55.543Z,22.04
2022-09-26T19:42:57.720Z,22.07
2022-09-26T19:47:59.560Z,22.02
2022-09-26T19:53:03.474Z,22.02
2022-09-26T19:58:13.399Z,22.02
2022-09-26T20:03:18.109Z,22.02
2022-09-26T20:08:22.851Z,22.04
2022-09-26T20:13:24.689Z,22.03
2022-09-26T20:18:26.662Z,22.02
2022-09-26T20:23:28.704Z,22.04
2022-09-26T20:28:30.961Z,22.07
2022-09-26T20:33:33.741Z,22.06
2022-09-26T20:38:48.173Z,22.04
2022-09-26T20:43:53.658Z,22.02
2022-09-26T20:48:55.619Z,22.00
2022-09-26T20:54:00.304Z,22.00
2022-09-26T20:59:02.218Z,22.00
2022-09-26T21:04:05.524Z,22.04
2022-09-26T21:09:15.364Z,22.05
2022-09-26T21:14:18.372Z,22.05
2022-09-26T21:19:23.819Z,22.00
2022-09-26T21:24:35.256Z,22.03
2022-09-26T21:29:37.336Z,22.02
2022-09-26T21:34:39.638Z,21.97
2022-09-26T21:39:41.564Z,22.02
2022-09-26T21:44:48.783Z,22.06
2022-09-26T21:49:51.030Z,22.03
2022-09-26T21:54:53.339Z,22.07
2022-09-26T21:59:56.775Z,21.99
2022-09-26T22:04:59.841Z,21.99
2022-09-26T22:10:01.803Z,21.95
2022-09-26T22:15:03.852Z,22.02
2022-09-26T22:20:05.788Z,22.06
2022-09-26T22:25:08.551Z,22.04
2022-09-26T22:30:10.920Z,22.01
2022-09-26T22:35:13.302Z,22.06
2022-09-26T22:40:15.276Z,22.04
2022-09-26T22:45:17.737Z,22.05
2022-09-26T22:50:19.788Z,22.08
2022-09-26T22:55:21.866Z,22.05
2022-09-26T23:00:23.731Z,22.05
2022-09-26T23:05:25.616Z,21.99
2022-09-26T23:10:27.713Z,21.97
2022-09-26T23:15:29.837Z,22.01
2022-09-26T23:20:31.748Z,22.06
2022-09-26T23:25:34.194Z,22.05
2022-09-26T23:30:36.199Z,22.02
2022-09-26T23:35:39.084Z,22.02
2022-09-26T23:40:41.534Z,22.03
2022-09-26T23:45:43.584Z,21.99
2022-09-26T23:50:47.186Z,22.01
2022-09-26T23:55:49.239Z,21.95
